Time;durP1;ratioP1;P1;durP2;ratioP2;P2;SDS_P1;SDS_P2;PMS_P1;PMS_P2;Temp;Humidity;BMP_temperature;BMP_pressure;BME280_temperature;BME280_humidity;BME280_pressure;Samples;Min_cycle;Max_cycle;Signal;HPM_P1;HPM_P2
2023/03/29 06:32:09;;;;;;;3.13;1.30;;;9.90;88.90;;;;;;6633150;23;20280;-78
2023/03/29 06:35:12;;;;;;;4.45;1.45;;;10.00;88.40;;;;;;6151853;29;20043;-79
2023/03/29 06:38:14;;;;;;;3.80;1.60;;;10.10;88.30;;;;;;6153231;29;20058;-77
2023/03/29 06:41:16;;;;;;;3.60;1.33;;;10.00;88.20;;;;;;6151803;29;20480;-77
2023/03/29 06:44:18;;;;;;;4.55;1.55;;;10.10;88.10;;;;;;6151559;29;20058;-78
2023/03/29 06:47:27;;;;;;;8.15;1.70;;;10.20;87.90;;;;;;6151637;29;20043;-77
2023/03/29 06:50:30;;;;;;;5.03;1.30;;;10.20;88.20;;;;;;6145975;29;20390;-76
2023/03/29 06:53:32;;;;;;;4.88;1.67;;;10.30;88.30;;;;;;6130297;29;20048;-75
2023/03/29 06:56:34;;;;;;;5.75;1.55;;;10.30;87.60;;;;;;6133278;29;20498;-77
2023/03/29 06:59:35;;;;;;;4.40;1.63;;;10.40;88.40;;;;;;6133183;29;20062;-77
2023/03/29 07:02:39;;;;;;;5.53;1.65;;;10.40;88.30;;;;;;6132946;29;20052;-76
2023/03/29 07:05:43;;;;;;;3.78;1.50;;;10.50;87.70;;;;;;6149768;29;20047;-78
2023/03/29 07:08:46;;;;;;;;;;;10.50;87.90;;;;;;6151067;29;20051;-77
2023/03/29 07:11:49;;;;;;;4.95;1.85;;;10.50;88.30;;;;;;6150866;29;19929;-78
2023/03/29 07:14:51;;;;;;;3.92;1.52;;;10.50;88.10;;;;;;6151250;29;20198;-79
2023/03/29 07:17:56;;;;;;;4.22;1.67;;;10.50;88.30;;;;;;6134884;29;20062;-77
2023/03/29 07:20:58;;;;;;;4.70;1.60;;;10.60;88.60;;;;;;6150680;29;20134;-80
2023/03/29 07:24:00;;;;;;;4.10;1.40;;;10.60;88.10;;;;;;6151619;29;20496;-79
2023/03/29 07:27:02;;;;;;;5.13;1.50;;;10.70;87.80;;;;;;6151837;29;20093;-78
2023/03/29 07:30:09;;;;;;;4.00;1.35;;;10.80;88.00;;;;;;6150914;29;20130;-79
2023/03/29 07:33:13;;;;;;;4.93;1.35;;;10.90;88.30;;;;;;6150220;28;20172;-79
2023/03/29 07:36:15;;;;;;;4.97;1.50;;;11.00;87.80;;;;;;6150891;29;20186;-77
2023/03/29 07:39:17;;;;;;;3.83;1.42;;;11.00;88.40;;;;;;6150873;29;20097;-79
2023/03/29 07:42:19;;;;;;;5.18;2.00;;;11.00;87.90;;;;;;6150777;28;20055;-79
2023/03/29 07:45:23;;;;;;;7.65;1.90;;;11.10;89.80;;;;;;6142848;29;20051;-77
2023/03/29 07:48:27;;;;;;;4.10;1.48;;;11.20;90.20;;;;;;6142610;29;20408;-78
2023/03/29 07:51:29;;;;;;;4.28;1.73;;;11.20;89.20;;;;;;6155653;29;20142;-78
2023/03/29 07:54:31;;;;;;;4.40;1.70;;;11.20;90.40;;;;;;6155388;29;20051;-78
2023/03/29 07:57:34;;;;;;;4.65;2.03;;;11.30;90.20;;;;;;6155304;29;20051;-79
2023/03/29 08:00:36;;;;;;;6.82;1.70;;;11.30;90.30;;;;;;6157771;29;20164;-80
2023/03/29 08:03:39;;;;;;;4.57;1.83;;;11.30;90.70;;;;;;6140386;29;20378;-78
2023/03/29 08:06:41;;;;;;;5.93;2.03;;;11.40;90.10;;;;;;6131716;29;20052;-79
2023/03/29 08:09:43;;;;;;;4.30;1.90;;;11.40;90.00;;;;;;6148106;29;20126;-76
2023/03/29 08:12:47;;;;;;;6.25;1.95;;;11.50;90.90;;;;;;6154696;29;20178;-79
2023/03/29 08:15:49;;;;;;;7.35;2.22;;;11.50;90.70;;;;;;6155233;29;20143;-80
2023/03/29 08:18:52;;;;;;;5.10;2.22;;;11.40;91.70;;;;;;6154184;29;20051;-78
2023/03/29 08:21:54;;;;;;;4.22;2.28;;;11.50;91.80;;;;;;6154587;29;20058;-79
2023/03/29 08:24:56;;;;;;;8.38;2.72;;;11.50;92.20;;;;;;6154441;29;20408;-79
2023/03/29 08:27:58;;;;;;;9.88;2.90;;;11.50;92.40;;;;;;6154818;29;20057;-80
2023/03/29 08:31:00;;;;;;;5.10;2.22;;;11.50;92.70;;;;;;6154109;28;20055;-78
2023/03/29 08:34:03;;;;;;;5.90;2.17;;;11.60;92.00;;;;;;6132895;29;20059;-78
2023/03/29 08:37:05;;;;;;;6.28;2.83;;;11.60;91.40;;;;;;6130348;29;20055;-78
2023/03/29 08:40:12;;;;;;;5.35;2.20;;;11.70;91.80;;;;;;6130436;29;20075;-79
2023/03/29 08:43:46;;;;;;;4.82;1.95;;;11.70;91.80;;;;;;6130341;29;20053;-79
2023/03/29 08:46:59;;;;;;;6.22;1.90;;;11.70;91.10;;;;;;6121996;29;20050;-78
2023/03/29 08:50:03;;;;;;;3.42;1.45;;;11.80;90.30;;;;;;6130241;29;20052;-80
2023/03/29 08:53:11;;;;;;;6.13;1.80;;;11.80;87.60;;;;;;6130564;29;20477;-79
2023/03/29 08:56:18;;;;;;;5.60;1.40;;;11.80;87.20;;;;;;6128810;29;20055;-77
2023/03/29 08:59:26;;;;;;;12.25;4.88;;;11.80;85.10;;;;;;6144765;29;20062;-77
2023/03/29 09:02:32;;;;;;;10.57;4.18;;;11.90;83.20;;;;;;6152956;29;20047;-81
2023/03/29 09:05:39;;;;;;;7.10;2.10;;;11.90;83.40;;;;;;6129865;29;20408;-77
2023/03/29 09:08:45;;;;;;;7.32;1.80;;;12.00;82.30;;;;;;6135505;29;20049;-78
2023/03/29 09:12:04;;;;;;;6.15;2.33;;;12.00;82.30;;;;;;6153464;29;20150;-78
2023/03/29 09:15:14;;;;;;;3.38;1.42;;;12.00;83.70;;;;;;6152433;29;20413;-79
2023/03/29 09:18:26;;;;;;;4.28;1.90;;;12.10;82.20;;;;;;6129624;29;20055;-79
2023/03/29 09:21:37;;;;;;;5.00;1.58;;;12.10;82.50;;;;;;6129384;29;20048;-79
2023/03/29 09:24:53;;;;;;;4.63;1.80;;;12.20;82.60;;;;;;6129508;29;20055;-78
2023/03/29 09:28:04;;;;;;;4.40;1.90;;;12.20;83.30;;;;;;6126480;29;20058;-79
2023/03/29 09:31:12;;;;;;;3.67;1.30;;;12.30;81.90;;;;;;6136465;28;20070;-79
2023/03/29 09:34:18;;;;;;;4.57;1.60;;;12.40;82.10;;;;;;6130159;29;20067;-79
2023/03/29 09:37:30;;;;;;;3.45;1.63;;;12.40;81.00;;;;;;6125692;29;20056;-79
2023/03/29 09:40:38;;;;;;;2.85;1.40;;;12.50;80.00;;;;;;6126135;29;20117;-80
2023/03/29 09:43:42;;;;;;;4.55;1.58;;;12.60;80.30;;;;;;6124173;29;20553;-76
2023/03/29 09:46:47;;;;;;;5.20;2.08;;;12.70;79.60;;;;;;6144008;29;20061;-80
2023/03/29 09:49:53;;;;;;;4.32;1.45;;;12.90;79.30;;;;;;6131282;29;20532;-78
2023/03/29 09:52:56;;;;;;;5.18;1.70;;;13.00;78.90;;;;;;6125736;29;20059;-79
2023/03/29 09:56:00;;;;;;;4.63;1.55;;;13.00;79.20;;;;;;6125828;29;20048;-80
2023/03/29 09:59:03;;;;;;;7.28;1.65;;;13.10;78.30;;;;;;6125634;29;20059;-76
2023/03/29 10:02:07;;;;;;;4.32;1.50;;;13.00;78.10;;;;;;6127918;29;20134;-79
2023/03/29 10:05:16;;;;;;;4.95;1.83;;;13.20;78.70;;;;;;6149849;29;20047;-78
2023/03/29 10:08:26;;;;;;;4.78;1.50;;;13.20;78.20;;;;;;6149709;29;20113;-79
2023/03/29 10:11:31;;;;;;;5.22;1.40;;;13.30;76.60;;;;;;6150521;29;20532;-75
2023/03/29 10:14:37;;;;;;;5.55;1.60;;;13.40;76.50;;;;;;6148567;29;20408;-77
2023/03/29 10:17:41;;;;;;;4.72;1.55;;;13.50;75.30;;;;;;6148632;29;20058;-78
2023/03/29 10:20:44;;;;;;;3.88;1.60;;;13.50;76.10;;;;;;6149143;29;20513;-76
2023/03/29 10:23:48;;;;;;;4.55;1.52;;;13.70;75.30;;;;;;6148564;29;20059;-79
2023/03/29 10:26:54;;;;;;;5.18;1.50;;;13.70;74.20;;;;;;6147179;29;20051;-78
2023/03/29 10:29:58;;;;;;;3.95;1.45;;;13.90;74.10;;;;;;6156503;29;20568;-79
2023/03/29 10:33:01;;;;;;;4.43;1.50;;;14.00;73.50;;;;;;6157057;28;20505;-79
2023/03/29 10:36:07;;;;;;;3.53;1.52;;;14.10;73.00;;;;;;6155817;29;20051;-79
2023/03/29 10:39:15;;;;;;;5.05;1.80;;;14.20;73.20;;;;;;6146771;29;20090;-78
2023/03/29 10:42:19;;;;;;;4.30;1.40;;;14.30;74.50;;;;;;6149265;29;20479;-78
2023/03/29 10:45:27;;;;;;;6.53;1.85;;;14.40;75.40;;;;;;6144971;29;20047;-79
2023/03/29 10:48:31;;;;;;;4.10;1.58;;;14.40;74.30;;;;;;6124484;29;20056;-78
2023/03/29 10:51:33;;;;;;;4.55;1.58;;;14.50;74.70;;;;;;6124309;29;20056;-79
2023/03/29 10:54:36;;;;;;;4.15;1.30;;;14.60;73.10;;;;;;6125192;29;20134;-78
2023/03/29 10:57:50;;;;;;;4.40;1.45;;;14.60;72.60;;;;;;6125061;29;20059;-77
2023/03/29 11:00:55;;;;;;;;;;;14.90;72.60;;;;;;6132394;29;20536;-75
2023/03/29 11:04:22;;;;;;;3.83;1.50;;;15.00;71.40;;;;;;6148233;29;19930;-77
2023/03/29 11:07:31;;;;;;;4.78;1.58;;;15.20;70.90;;;;;;6148153;29;20054;-77
2023/03/29 11:10:46;;;;;;;3.65;1.55;;;15.40;70.40;;;;;;6148507;29;20404;-78
2023/03/29 11:13:59;;;;;;;5.05;1.52;;;15.50;70.30;;;;;;6146357;29;20428;-76
2023/03/29 11:17:15;;;;;;;3.42;1.40;;;15.70;69.70;;;;;;6131308;29;20078;-78
2023/03/29 11:20:28;;;;;;;6.88;1.60;;;15.70;70.00;;;;;;6129291;29;20450;-75
2023/03/29 11:23:43;;;;;;;3.95;1.70;;;15.70;69.60;;;;;;6129258;29;20048;-77
2023/03/29 11:26:59;;;;;;;5.07;1.50;;;15.80;69.90;;;;;;6129330;29;20131;-79
2023/03/29 11:30:08;;;;;;;4.13;1.23;;;15.80;70.70;;;;;;6129539;29;20107;-76
2023/03/29 11:33:32;;;;;;;4.32;1.42;;;15.90;69.80;;;;;;6144792;29;20468;-79
2023/03/29 11:36:44;;;;;;;3.25;1.10;;;15.80;65.30;;;;;;6152977;29;20146;-78
2023/03/29 11:39:59;;;;;;;4.67;1.20;;;15.80;65.40;;;;;;6152804;29;20055;-77
2023/03/29 11:43:06;;;;;;;3.65;1.10;;;15.70;64.70;;;;;;6150407;29;20413;-76
2023/03/29 11:46:13;;;;;;;3.90;1.10;;;15.60;65.30;;;;;;6152023;29;20433;-75
2023/03/29 11:49:22;;;;;;;2.80;1.02;;;15.50;65.00;;;;;;6152017;29;20520;-76
2023/03/29 11:52:30;;;;;;;3.45;1.20;;;15.50;63.30;;;;;;6152816;29;20393;-78
2023/03/29 11:55:35;;;;;;;4.00;1.10;;;15.50;62.90;;;;;;6152026;29;20134;-76
2023/03/29 11:58:42;;;;;;;3.80;1.30;;;15.60;63.20;;;;;;6152236;29;20535;-78
2023/03/29 12:01:49;;;;;;;4.15;1.30;;;15.40;61.70;;;;;;6150344;29;20043;-79
2023/03/29 12:04:55;;;;;;;3.15;1.10;;;15.40;63.70;;;;;;6152150;29;20051;-78
2023/03/29 12:08:03;;;;;;;6.78;1.00;;;15.40;62.40;;;;;;6139506;29;20095;-77
2023/03/29 12:11:11;;;;;;;4.40;1.30;;;15.40;62.30;;;;;;6152068;29;20476;-78
2023/03/29 12:14:21;;;;;;;3.63;1.13;;;15.50;62.50;;;;;;6133706;29;20449;-77
2023/03/29 12:17:30;;;;;;;4.32;1.05;;;15.40;63.20;;;;;;6127956;29;20048;-77
2023/03/29 12:20:36;;;;;;;3.13;1.17;;;15.40;63.30;;;;;;6127789;29;20516;-78
2023/03/29 12:23:40;;;;;;;6.15;1.20;;;15.50;63.80;;;;;;6128144;29;20059;-77
2023/03/29 12:27:07;;;;;;;3.92;1.10;;;15.40;64.10;;;;;;6127599;29;20062;-80
2023/03/29 12:30:35;;;;;;;3.30;1.00;;;15.40;64.50;;;;;;6127424;29;20508;-76
2023/03/29 12:34:10;;;;;;;2.50;1.00;;;15.50;65.30;;;;;;6127379;29;20649;-76
2023/03/29 12:37:28;;;;;;;5.30;1.10;;;15.50;64.60;;;;;;6143401;29;20463;-77
2023/03/29 12:40:41;;;;;;;3.65;1.10;;;15.60;65.80;;;;;;6147125;29;20057;-78
2023/03/29 12:43:43;;;;;;;;;;;15.70;65.70;;;;;;6142821;29;20047;-79
2023/03/29 12:46:51;;;;;;;4.88;1.33;;;15.70;65.50;;;;;;6141832;29;19927;-79
2023/03/29 12:49:56;;;;;;;4.70;1.27;;;15.70;64.60;;;;;;6126896;29;20056;-78
2023/03/29 12:53:15;;;;;;;3.92;1.20;;;15.70;65.00;;;;;;6127131;29;20071;-78
2023/03/29 12:56:20;;;;;;;3.70;1.20;;;15.80;65.50;;;;;;6127018;29;20483;-78
2023/03/29 12:59:36;;;;;;;4.75;1.08;;;15.70;65.00;;;;;;6139168;29;20055;-80
2023/03/29 13:02:39;;;;;;;4.00;1.10;;;15.60;67.10;;;;;;6150353;29;20144;-79
2023/03/29 13:05:41;;;;;;;3.55;1.10;;;15.40;76.30;;;;;;6150438;29;20051;-79
2023/03/29 13:08:44;;;;;;;2.60;1.00;;;15.00;82.90;;;;;;6150504;29;20058;-80
2023/03/29 13:11:53;;;;;;;3.90;1.45;;;14.90;82.20;;;;;;6150536;29;20513;-78
2023/03/29 13:14:59;;;;;;;5.20;1.10;;;15.10;78.20;;;;;;6150604;29;20055;-78
2023/03/29 13:18:17;;;;;;;4.43;1.20;;;15.10;80.30;;;;;;6150362;29;20051;-79
2023/03/29 13:21:30;;;;;;;4.10;0.98;;;15.00;78.40;;;;;;6149814;29;20058;-79
2023/03/29 13:25:05;;;;;;;2.87;1.10;;;14.90;77.70;;;;;;6126477;29;20048;-79
2023/03/29 13:28:16;;;;;;;3.20;1.20;;;14.90;78.40;;;;;;6127043;29;20047;-77
2023/03/29 13:31:31;;;;;;;3.17;1.13;;;14.90;78.60;;;;;;6126678;29;20110;-79
2023/03/29 13:34:42;;;;;;;4.70;1.30;;;14.90;76.70;;;;;;6126079;29;20051;-77
2023/03/29 13:37:58;;;;;;;4.10;1.30;;;15.00;76.70;;;;;;6125679;29;20417;-76
2023/03/29 13:41:04;;;;;;;4.35;1.10;;;15.00;77.60;;;;;;6125151;29;20521;-76
2023/03/29 13:44:26;;;;;;;2.83;0.98;;;15.00;76.40;;;;;;6124068;29;20405;-79
2023/03/29 13:47:41;;;;;;;3.58;1.05;;;15.00;77.30;;;;;;6126256;29;20048;-80
2023/03/29 13:50:53;;;;;;;5.18;1.42;;;15.00;77.50;;;;;;6128885;29;20386;-77
2023/03/29 13:54:01;;;;;;;2.65;1.10;;;14.80;78.80;;;;;;6149595;29;20055;-79
2023/03/29 13:57:10;;;;;;;5.32;1.17;;;14.70;79.20;;;;;;6154665;29;20056;-77
2023/03/29 14:00:19;;;;;;;3.92;1.15;;;14.60;78.70;;;;;;6140208;29;20060;-79
2023/03/29 14:03:25;;;;;;;4.80;1.30;;;14.60;81.70;;;;;;6138282;29;20056;-78
2023/03/29 14:06:32;;;;;;;4.13;1.20;;;14.60;81.80;;;;;;6125728;29;20067;-78
2023/03/29 14:09:41;;;;;;;3.00;1.20;;;14.70;80.10;;;;;;6128225;29;20059;-79
2023/03/29 14:12:43;;;;;;;3.97;1.13;;;14.70;80.00;;;;;;6125357;29;20044;-78
2023/03/29 14:15:48;;;;;;;6.90;1.33;;;14.80;80.00;;;;;;6125150;29;20102;-79
2023/03/29 14:18:51;;;;;;;2.42;1.08;;;14.80;79.60;;;;;;6125293;29;20047;-77
2023/03/29 14:21:54;;;;;;;4.10;1.25;;;14.90;80.00;;;;;;6141838;29;20472;-77
2023/03/29 14:25:02;;;;;;;4.00;0.95;;;15.00;80.10;;;;;;6148341;29;20051;-78
2023/03/29 14:28:19;;;;;;;2.72;1.13;;;15.10;79.00;;;;;;6148712;29;20054;-79
2023/03/29 14:31:24;;;;;;;4.68;1.33;;;15.40;78.50;;;;;;6148383;28;20058;-79
2023/03/29 14:34:27;;;;;;;3.20;1.35;;;15.60;78.70;;;;;;6141747;29;20409;-78
2023/03/29 14:37:31;;;;;;;5.00;1.37;;;15.60;77.40;;;;;;6124719;29;20058;-80
2023/03/29 14:40:33;;;;;;;;;;;15.80;76.30;;;;;;6125419;29;20093;-77
2023/03/29 14:43:35;;;;;;;3.85;1.35;;;15.80;74.60;;;;;;6122928;29;20025;-80
2023/03/29 14:46:37;;;;;;;2.90;1.02;;;16.00;75.10;;;;;;6125055;29;20059;-79
2023/03/29 14:49:40;;;;;;;4.90;1.58;;;16.00;74.90;;;;;;6141849;29;20537;-79
2023/03/29 14:52:44;;;;;;;8.75;2.90;;;16.10;75.50;;;;;;6131172;29;20063;-78
2023/03/29 14:55:51;;;;;;;5.75;2.28;;;16.40;74.70;;;;;;6124276;29;20402;-76
2023/03/29 14:58:55;;;;;;;5.22;1.48;;;17.30;74.10;;;;;;6128154;29;20551;-76
2023/03/29 15:01:57;;;;;;;5.03;1.42;;;17.90;73.90;;;;;;6135176;29;20070;-76
2023/03/29 15:05:03;;;;;;;5.13;1.50;;;17.90;72.60;;;;;;6124465;29;20513;-78
2023/03/29 15:08:10;;;;;;;4.93;1.50;;;17.60;72.70;;;;;;6124402;29;20058;-78
2023/03/29 15:11:17;;;;;;;5.70;1.75;;;17.40;73.60;;;;;;6127327;29;20059;-77
2023/03/29 15:14:20;;;;;;;4.53;1.60;;;17.10;73.80;;;;;;6124418;29;20059;-78
2023/03/29 15:17:33;;;;;;;5.20;1.58;;;16.80;74.90;;;;;;6124639;29;20352;-78
2023/03/29 15:20:38;;;;;;;5.65;1.95;;;16.60;75.20;;;;;;6127025;29;20051;-77
2023/03/29 15:23:48;;;;;;;5.25;2.10;;;16.60;75.90;;;;;;6147608;29;20429;-75
2023/03/29 15:27:03;;;;;;;4.80;1.70;;;16.40;75.70;;;;;;6147231;29;20053;-74
2023/03/29 15:30:13;;;;;;;5.85;1.85;;;16.40;74.50;;;;;;6148157;29;20496;-76
2023/03/29 15:33:20;;;;;;;4.00;1.70;;;16.50;74.20;;;;;;6124020;29;20060;-78
2023/03/29 15:36:21;;;;;;;4.22;1.75;;;16.60;73.30;;;;;;6124047;29;20536;-79
2023/03/29 15:39:27;;;;;;;4.43;1.90;;;16.70;73.80;;;;;;6139709;29;20051;-78
2023/03/29 15:42:30;;;;;;;5.65;1.90;;;16.80;73.20;;;;;;6128986;29;20067;-79
2023/03/29 15:45:32;;;;;;;7.20;2.15;;;17.20;72.90;;;;;;6122090;29;20055;-79
2023/03/29 15:48:34;;;;;;;4.38;2.20;;;18.50;70.40;;;;;;6128371;29;20051;-79
2023/03/29 15:51:35;;;;;;;5.30;2.00;;;19.50;68.00;;;;;;6134297;29;20052;-80
2023/03/29 15:54:39;;;;;;;6.38;2.00;;;19.90;66.40;;;;;;6144156;29;20103;-78
2023/03/29 15:57:46;;;;;;;6.15;1.83;;;21.10;64.80;;;;;;6147336;29;20043;-78
2023/03/29 16:00:52;;;;;;;4.00;1.80;;;21.80;63.40;;;;;;6146970;29;20405;-80
2023/03/29 16:03:54;;;;;;;4.40;1.98;;;22.20;60.30;;;;;;6126704;29;20067;-81
2023/03/29 16:06:56;;;;;;;4.95;1.88;;;22.20;60.50;;;;;;6151561;29;20043;-79
2023/03/29 16:09:59;;;;;;;3.97;1.50;;;21.70;60.50;;;;;;6148156;29;20051;-80
2023/03/29 16:13:01;;;;;;;4.25;1.25;;;21.00;61.50;;;;;;6147139;29;20053;-77
2023/03/29 16:16:03;;;;;;;5.93;1.70;;;20.20;62.40;;;;;;6151000;29;20055;-81
2023/03/29 16:19:05;;;;;;;4.78;1.63;;;19.50;64.30;;;;;;6148122;29;20480;-80
2023/03/29 16:22:07;;;;;;;4.53;1.40;;;19.00;64.60;;;;;;6127626;29;20055;-78
2023/03/29 16:25:14;;;;;;;3.92;1.60;;;18.80;65.20;;;;;;6127676;29;20520;-80
2023/03/29 16:28:16;;;;;;;3.92;1.40;;;18.40;65.80;;;;;;6134207;29;20054;-81
2023/03/29 16:31:18;;;;;;;3.85;1.30;;;18.10;66.30;;;;;;6148285;28;20152;-82
2023/03/29 16:34:21;;;;;;;5.20;1.60;;;17.90;66.60;;;;;;6147588;29;20539;-84
2023/03/29 16:37:23;;;;;;;4.72;1.58;;;17.70;67.10;;;;;;6142583;28;20146;-81
2023/03/29 16:40:26;;;;;;;4.47;1.38;;;17.50;67.50;;;;;;6150899;29;20367;-84
2023/03/29 16:43:28;;;;;;;5.32;1.70;;;17.40;67.70;;;;;;6148135;29;20062;-83
2023/03/29 16:46:30;;;;;;;4.63;1.83;;;17.30;67.90;;;;;;6148817;29;20063;-84
2023/03/29 16:49:32;;;;;;;4.68;1.40;;;17.20;67.90;;;;;;6149945;29;20047;-80
2023/03/29 16:52:34;;;;;;;4.75;1.95;;;17.10;68.30;;;;;;6150127;29;20067;-85
2023/03/29 16:55:38;;;;;;;8.20;2.22;;;17.00;68.50;;;;;;6148185;29;20055;-79
2023/03/29 16:58:40;;;;;;;6.88;1.67;;;16.90;68.80;;;;;;6140546;29;20051;-79
2023/03/29 17:01:42;;;;;;;4.43;1.40;;;16.90;68.70;;;;;;6144331;29;20047;-81
2023/03/29 17:04:44;;;;;;;3.75;1.48;;;16.80;69.50;;;;;;6148245;29;20508;-83
2023/03/29 17:07:46;;;;;;;5.60;1.65;;;16.80;69.60;;;;;;6147505;29;20067;-83
2023/03/29 17:10:54;;;;;;;4.68;1.55;;;16.70;69.70;;;;;;6147983;29;20051;-82
2023/03/29 17:13:56;;;;;;;5.57;1.83;;;16.60;69.80;;;;;;6149000;29;20083;-83
2023/03/29 17:16:58;;;;;;;4.63;1.35;;;16.50;70.50;;;;;;6150440;28;20066;-83
2023/03/29 17:20:00;;;;;;;4.13;1.75;;;16.40;70.50;;;;;;6147154;29;20171;-84
2023/03/29 17:23:02;;;;;;;20.48;9.45;;;16.30;70.60;;;;;;6147978;29;20130;-82
2023/03/29 17:26:07;;;;;;;14.68;7.03;;;16.30;70.30;;;;;;6146945;29;20047;-82
2023/03/29 17:29:09;;;;;;;7.60;3.13;;;16.20;70.20;;;;;;6137613;29;20051;-81
2023/03/29 17:32:11;;;;;;;7.13;2.50;;;16.20;70.60;;;;;;6163446;28;20059;-81
2023/03/29 17:35:13;;;;;;;5.88;1.90;;;16.20;71.10;;;;;;6157334;29;20058;-80
2023/03/29 17:38:15;;;;;;;4.05;1.58;;;16.10;70.80;;;;;;6134752;29;20052;-83
2023/03/29 17:41:18;;;;;;;5.35;1.55;;;16.10;70.90;;;;;;6126063;29;20087;-80
2023/03/29 17:44:20;;;;;;;7.32;1.98;;;16.10;71.00;;;;;;6126445;29;20055;-81
2023/03/29 17:47:22;;;;;;;3.72;1.45;;;16.00;72.10;;;;;;6135427;29;20044;-80
2023/03/29 17:50:25;;;;;;;5.50;1.48;;;16.00;72.70;;;;;;6146539;29;20806;-78
2023/03/29 17:53:27;;;;;;;4.45;1.58;;;15.90;73.00;;;;;;6147965;29;20134;-80
2023/03/29 17:56:31;;;;;;;5.97;1.70;;;15.90;73.20;;;;;;6149621;29;20055;-78
2023/03/29 17:59:33;;;;;;;5.25;1.90;;;15.80;74.50;;;;;;6148368;29;20054;-80
2023/03/29 18:02:35;;;;;;;5.75;2.20;;;15.70;74.90;;;;;;6148206;29;20051;-78
2023/03/29 18:05:37;;;;;;;5.68;1.90;;;15.70;78.30;;;;;;6142566;29;20047;-80
2023/03/29 18:08:39;;;;;;;5.13;1.63;;;15.60;80.70;;;;;;6148451;29;20047;-78
2023/03/29 18:11:42;;;;;;;5.68;1.80;;;15.60;81.00;;;;;;6123408;29;20433;-78
2023/03/29 18:14:44;;;;;;;7.03;2.00;;;15.50;81.50;;;;;;6124165;29;20059;-80
2023/03/29 18:17:46;;;;;;;6.10;2.13;;;15.50;80.20;;;;;;6144039;29;20102;-81
2023/03/29 18:20:48;;;;;;;4.30;1.80;;;15.60;80.50;;;;;;6144877;29;20043;-79
2023/03/29 18:23:50;;;;;;;6.85;2.17;;;15.50;81.70;;;;;;6142655;29;20409;-80
2023/03/29 18:26:54;;;;;;;5.23;2.23;;;15.50;83.30;;;;;;6131140;29;20114;-79
2023/03/29 18:29:57;;;;;;;6.82;2.20;;;15.50;83.90;;;;;;6124884;29;20063;-81
2023/03/29 18:32:59;;;;;;;4.88;1.92;;;15.40;84.80;;;;;;6135654;29;20070;-80
2023/03/29 18:36:03;;;;;;;8.02;2.50;;;15.40;84.70;;;;;;6148443;29;20059;-79
2023/03/29 18:39:05;;;;;;;8.88;3.10;;;15.30;84.00;;;;;;6147706;29;20051;-78
2023/03/29 18:42:08;;;;;;;7.45;2.45;;;15.30;84.00;;;;;;6147697;29;20055;-79
2023/03/29 18:45:12;;;;;;;6.55;2.28;;;15.30;83.50;;;;;;6144636;29;20054;-79
2023/03/29 18:48:14;;;;;;;5.53;2.10;;;15.20;86.50;;;;;;6146945;29;20062;-79
2023/03/29 18:51:16;;;;;;;8.68;2.25;;;15.20;88.00;;;;;;6141576;29;20136;-77
2023/03/29 18:54:18;;;;;;;9.98;4.75;;;15.10;88.40;;;;;;6142816;29;20433;-76
2023/03/29 18:57:21;;;;;;;15.05;8.68;;;15.20;87.50;;;;;;6144846;29;20564;-77
2023/03/29 19:00:23;;;;;;;11.38;3.75;;;15.10;86.20;;;;;;6141855;28;20051;-79
2023/03/29 19:03:25;;;;;;;10.50;5.03;;;15.00;86.70;;;;;;6139951;29;20070;-83
2023/03/29 19:06:27;;;;;;;7.55;3.28;;;14.90;85.60;;;;;;6133949;29;20078;-79
2023/03/29 19:09:29;;;;;;;7.07;2.85;;;14.90;82.60;;;;;;6147966;29;20055;-79
2023/03/29 19:12:33;;;;;;;6.03;2.25;;;14.80;80.90;;;;;;6146187;29;20047;-82
2023/03/29 19:15:34;;;;;;;6.68;2.25;;;14.90;84.20;;;;;;6148048;29;20062;-81
2023/03/29 19:18:36;;;;;;;6.30;1.98;;;14.80;82.70;;;;;;6149424;29;20048;-82
2023/03/29 19:21:38;;;;;;;5.07;1.88;;;14.90;84.90;;;;;;6147557;29;20055;-83
2023/03/29 19:24:40;;;;;;;8.52;2.63;;;14.80;81.20;;;;;;6140498;29;20052;-77
2023/03/29 19:27:43;;;;;;;8.05;3.30;;;14.90;79.90;;;;;;6134341;29;20099;-78
2023/03/29 19:30:46;;;;;;;11.57;2.60;;;14.90;78.90;;;;;;6123952;29;20052;-78
2023/03/29 19:33:48;;;;;;;6.85;2.40;;;14.90;76.90;;;;;;6138008;29;20047;-79
2023/03/29 19:36:52;;;;;;;6.13;2.20;;;14.70;83.00;;;;;;6147335;29;20062;-78
2023/03/29 19:39:55;;;;;;;;;;;14.60;82.60;;;;;;6149870;28;20393;-77
2023/03/29 19:42:59;;;;;;;7.43;1.80;;;14.70;77.80;;;;;;6150923;29;20029;-77
2023/03/29 19:46:09;;;;;;;5.28;1.83;;;14.70;79.00;;;;;;6152468;29;20062;-79
2023/03/29 19:49:12;;;;;;;5.10;2.00;;;14.70;81.60;;;;;;6150682;29;20165;-80
2023/03/29 19:52:14;;;;;;;7.40;2.20;;;14.70;84.80;;;;;;6150979;29;20500;-78
2023/03/29 19:55:17;;;;;;;6.53;2.33;;;14.70;82.90;;;;;;6128961;29;20056;-78
2023/03/29 19:58:20;;;;;;;8.65;2.72;;;14.70;84.70;;;;;;6131072;29;20058;-78
2023/03/29 20:01:25;;;;;;;6.90;2.35;;;14.60;83.10;;;;;;6158590;28;20051;-78
2023/03/29 20:04:28;;;;;;;7.88;2.50;;;14.50;84.60;;;;;;6156255;28;20114;-79
2023/03/29 20:07:30;;;;;;;7.78;3.00;;;14.20;87.50;;;;;;6152326;29;20098;-78
2023/03/29 20:10:32;;;;;;;7.50;2.53;;;14.20;86.40;;;;;;6150284;29;20055;-77
2023/03/29 20:13:37;;;;;;;8.10;2.63;;;14.30;86.80;;;;;;6149761;29;20078;-79
2023/03/29 20:16:40;;;;;;;6.75;2.60;;;14.30;85.50;;;;;;6127956;29;20056;-81
2023/03/29 20:19:42;;;;;;;6.28;2.50;;;14.30;84.10;;;;;;6128060;29;20063;-78
2023/03/29 20:22:44;;;;;;;9.40;2.38;;;14.30;84.70;;;;;;6136774;29;20130;-76
2023/03/29 20:25:46;;;;;;;6.70;1.80;;;14.30;85.00;;;;;;6151237;29;20401;-77
2023/03/29 20:28:50;;;;;;;5.45;2.00;;;14.30;81.10;;;;;;6150079;29;20048;-77
2023/03/29 20:31:52;;;;;;;7.38;2.47;;;14.30;79.00;;;;;;6151615;28;20397;-80
2023/03/29 20:34:54;;;;;;;7.50;2.00;;;14.40;83.30;;;;;;6148992;29;20051;-78
2023/03/29 20:37:55;;;;;;;7.85;1.83;;;14.40;78.90;;;;;;6132248;29;20055;-79
2023/03/29 20:40:57;;;;;;;9.80;2.30;;;14.50;76.80;;;;;;6143907;29;20052;-78
2023/03/29 20:44:01;;;;;;;6.28;1.75;;;14.60;76.40;;;;;;6139152;29;20061;-79
2023/03/29 20:47:06;;;;;;;8.63;2.30;;;14.60;76.40;;;;;;6151021;29;20416;-78
2023/03/29 20:50:10;;;;;;;5.93;2.10;;;14.70;75.80;;;;;;6151006;28;20051;-78
2023/03/29 20:53:12;;;;;;;8.48;1.95;;;14.70;75.60;;;;;;6150541;29;20489;-76
2023/03/29 20:56:14;;;;;;;8.38;2.38;;;14.70;78.30;;;;;;6146777;29;20035;-79
2023/03/29 20:59:17;;;;;;;9.85;2.42;;;14.70;75.70;;;;;;6140204;29;20062;-77
2023/03/29 21:02:22;;;;;;;9.13;2.20;;;14.80;75.70;;;;;;6158598;29;20058;-78
2023/03/29 21:05:24;;;;;;;7.85;1.98;;;14.80;75.10;;;;;;6144620;29;20644;-78
2023/03/29 21:08:27;;;;;;;9.80;2.08;;;14.90;74.90;;;;;;6182280;28;20054;-79
2023/03/29 21:11:29;;;;;;;7.25;2.15;;;14.90;75.30;;;;;;6131914;28;20530;-77
2023/03/29 21:14:32;;;;;;;12.70;2.53;;;14.90;79.00;;;;;;6152816;29;20058;-79
2023/03/29 21:17:34;;;;;;;9.00;1.85;;;14.70;77.80;;;;;;6159681;29;20046;-78
2023/03/29 21:20:37;;;;;;;10.43;2.05;;;14.80;77.00;;;;;;6163884;29;20070;-78
2023/03/29 21:23:39;;;;;;;7.07;2.00;;;14.80;77.60;;;;;;6169758;29;20058;-79
2023/03/29 21:26:41;;;;;;;11.68;2.80;;;14.90;76.70;;;;;;6170772;29;20139;-79
2023/03/29 21:29:44;;;;;;;33.58;13.73;;;15.00;76.50;;;;;;6153452;29;20052;-78
2023/03/29 21:32:46;;;;;;;24.98;10.70;;;15.10;76.30;;;;;;6136374;29;20043;-79
2023/03/29 21:35:49;;;;;;;18.52;7.47;;;15.10;75.80;;;;;;6150330;29;20062;-78
2023/03/29 21:38:51;;;;;;;9.20;3.05;;;15.10;75.80;;;;;;6135724;29;20048;-79
2023/03/29 21:41:53;;;;;;;8.68;2.53;;;15.10;75.70;;;;;;6128031;29;20056;-79
2023/03/29 21:44:56;;;;;;;9.02;2.38;;;15.10;75.80;;;;;;6143850;29;20047;-80
2023/03/29 21:47:58;;;;;;;11.00;2.30;;;15.10;75.90;;;;;;6151649;29;20051;-78
2023/03/29 21:51:00;;;;;;;11.25;2.20;;;15.10;75.90;;;;;;6149485;29;20051;-81
2023/03/29 21:54:02;;;;;;;13.32;2.80;;;15.10;75.90;;;;;;6147427;29;20047;-80
2023/03/29 21:57:04;;;;;;;9.48;2.72;;;15.10;75.90;;;;;;6152608;29;20051;-80
